sensor_id;sensor_type;location;lat;lon;timestamp;temperature;humidity
6355;DHT22;3210;48.708;9.030;2022-12-18T00:01:57;-10.90;99.60
6355;DHT22;3210;48.708;9.030;2022-12-18T00:04:27;-10.80;99.90
6355;DHT22;3210;48.708;9.030;2022-12-18T00:06:54;-10.90;99.00
6355;DHT22;3210;48.708;9.030;2022-12-18T00:09:21;-10.90;97.20
6355;DHT22;3210;48.708;9.030;2022-12-18T00:11:48;-11.00;95.70
6355;DHT22;3210;48.708;9.030;2022-12-18T00:14:16;-11.10;94.50
6355;DHT22;3210;48.708;9.030;2022-12-18T00:16:44;-11.20;94.80
6355;DHT22;3210;48.708;9.030;2022-12-18T00:19:12;-11.20;96.10
6355;DHT22;3210;48.708;9.030;2022-12-18T00:21:41;-11.20;96.80
6355;DHT22;3210;48.708;9.030;2022-12-18T00:24:09;-11.20;97.70
6355;DHT22;3210;48.708;9.030;2022-12-18T00:26:36;-11.20;97.80
6355;DHT22;3210;48.708;9.030;2022-12-18T00:29:05;-11.10;97.80
6355;DHT22;3210;48.708;9.030;2022-12-18T00:31:34;-11.10;99.90
6355;DHT22;3210;48.708;9.030;2022-12-18T00:34:02;-11.10;97.30
6355;DHT22;3210;48.708;9.030;2022-12-18T00:36:31;-11.00;97.70
6355;DHT22;3210;48.708;9.030;2022-12-18T00:38:59;-11.00;97.60
6355;DHT22;3210;48.708;9.030;2022-12-18T00:41:27;-10.90;97.20
6355;DHT22;3210;48.708;9.030;2022-12-18T00:44:13;-10.90;96.10
6355;DHT22;3210;48.708;9.030;2022-12-18T00:46:42;-11.00;94.80
6355;DHT22;3210;48.708;9.030;2022-12-18T00:49:09;-11.20;91.50
6355;DHT22;3210;48.708;9.030;2022-12-18T00:51:36;-11.20;90.90
6355;DHT22;3210;48.708;9.030;2022-12-18T00:54:03;-11.20;91.50
6355;DHT22;3210;48.708;9.030;2022-12-18T00:56:30;-11.20;90.70
6355;DHT22;3210;48.708;9.030;2022-12-18T00:58:57;-11.20;91.10
6355;DHT22;3210;48.708;9.030;2022-12-18T01:01:24;-11.20;88.70
6355;DHT22;3210;48.708;9.030;2022-12-18T01:03:52;-11.20;90.20
6355;DHT22;3210;48.708;9.030;2022-12-18T01:06:19;-11.00;88.80
6355;DHT22;3210;48.708;9.030;2022-12-18T01:08:46;-11.10;86.50
6355;DHT22;3210;48.708;9.030;2022-12-18T01:11:15;-11.20;85.50
6355;DHT22;3210;48.708;9.030;2022-12-18T01:13:43;-11.40;79.20
6355;DHT22;3210;48.708;9.030;2022-12-18T01:16:12;-11.40;81.60
6355;DHT22;3210;48.708;9.030;2022-12-18T01:18:38;-11.60;84.50
6355;DHT22;3210;48.708;9.030;2022-12-18T01:21:08;-11.60;88.80
6355;DHT22;3210;48.708;9.030;2022-12-18T01:23:36;-11.60;98.30
6355;DHT22;3210;48.708;9.030;2022-12-18T01:26:07;-11.70;89.00
6355;DHT22;3210;48.708;9.030;2022-12-18T01:28:34;-11.60;91.70
6355;DHT22;3210;48.708;9.030;2022-12-18T01:31:16;-11.60;91.50
6355;DHT22;3210;48.708;9.030;2022-12-18T01:33:44;-11.60;89.00
6355;DHT22;3210;48.708;9.030;2022-12-18T01:36:18;-11.60;90.80
6355;DHT22;3210;48.708;9.030;2022-12-18T01:38:46;-11.50;90.20
6355;DHT22;3210;48.708;9.030;2022-12-18T01:41:13;-11.50;90.50
6355;DHT22;3210;48.708;9.030;2022-12-18T01:43:49;-11.40;90.90
6355;DHT22;3210;48.708;9.030;2022-12-18T01:46:18;-11.30;91.80
6355;DHT22;3210;48.708;9.030;2022-12-18T01:48:46;-11.30;91.70
6355;DHT22;3210;48.708;9.030;2022-12-18T01:51:15;-11.30;91.90
6355;DHT22;3210;48.708;9.030;2022-12-18T01:53:43;-11.10;94.00
6355;DHT22;3210;48.708;9.030;2022-12-18T01:56:13;-11.30;91.60
6355;DHT22;3210;48.708;9.030;2022-12-18T01:58:48;-11.30;93.60
6355;DHT22;3210;48.708;9.030;2022-12-18T02:01:17;-11.30;96.00
6355;DHT22;3210;48.708;9.030;2022-12-18T02:03:44;-11.20;98.00
6355;DHT22;3210;48.708;9.030;2022-12-18T02:06:17;-11.10;99.50
6355;DHT22;3210;48.708;9.030;2022-12-18T02:08:57;-11.10;99.90
6355;DHT22;3210;48.708;9.030;2022-12-18T02:11:34;-10.90;99.90
6355;DHT22;3210;48.708;9.030;2022-12-18T02:14:10;-10.80;99.60
6355;DHT22;3210;48.708;9.030;2022-12-18T02:16:45;-10.90;96.80
6355;DHT22;3210;48.708;9.030;2022-12-18T02:19:22;-10.90;96.50
6355;DHT22;3210;48.708;9.030;2022-12-18T02:22:06;-10.90;98.20
6355;DHT22;3210;48.708;9.030;2022-12-18T02:24:37;-11.00;99.10
6355;DHT22;3210;48.708;9.030;2022-12-18T02:27:11;-11.00;99.90
6355;DHT22;3210;48.708;9.030;2022-12-18T02:29:41;-10.90;99.90
6355;DHT22;3210;48.708;9.030;2022-12-18T02:32:15;-10.80;99.90
6355;DHT22;3210;48.708;9.030;2022-12-18T02:34:43;-10.70;99.90
6355;DHT22;3210;48.708;9.030;2022-12-18T02:37:13;-10.70;99.90
6355;DHT22;3210;48.708;9.030;2022-12-18T02:39:43;-10.60;99.90
6355;DHT22;3210;48.708;9.030;2022-12-18T02:42:12;-10.60;99.90
6355;DHT22;3210;48.708;9.030;2022-12-18T02:44:44;-10.40;99.90
6355;DHT22;3210;48.708;9.030;2022-12-18T02:47:12;-10.50;96.80
6355;DHT22;3210;48.708;9.030;2022-12-18T02:49:47;-10.50;95.60
6355;DHT22;3210;48.708;9.030;2022-12-18T02:52:24;-10.50;94.30
6355;DHT22;3210;48.708;9.030;2022-12-18T02:55:00;-10.50;94.80
6355;DHT22;3210;48.708;9.030;2022-12-18T02:57:40;-10.80;90.60
6355;DHT22;3210;48.708;9.030;2022-12-18T03:00:12;-10.80;90.80
6355;DHT22;3210;48.708;9.030;2022-12-18T03:02:44;-11.00;91.90
6355;DHT22;3210;48.708;9.030;2022-12-18T03:05:16;-11.00;94.40
6355;DHT22;3210;48.708;9.030;2022-12-18T03:07:49;-10.90;95.70
6355;DHT22;3210;48.708;9.030;2022-12-18T03:10:21;-10.90;96.90
6355;DHT22;3210;48.708;9.030;2022-12-18T03:12:56;-10.90;98.20
6355;DHT22;3210;48.708;9.030;2022-12-18T03:15:28;-10.80;99.90
6355;DHT22;3210;48.708;9.030;2022-12-18T03:17:59;-10.80;99.90
6355;DHT22;3210;48.708;9.030;2022-12-18T03:20:31;-10.80;99.90
6355;DHT22;3210;48.708;9.030;2022-12-18T03:23:04;-10.60;99.90
6355;DHT22;3210;48.708;9.030;2022-12-18T03:25:34;-10.50;99.90
6355;DHT22;3210;48.708;9.030;2022-12-18T03:28:06;-10.60;99.90
6355;DHT22;3210;48.708;9.030;2022-12-18T03:30:37;-10.50;99.90
6355;DHT22;3210;48.708;9.030;2022-12-18T03:33:08;-10.60;99.90
6355;DHT22;3210;48.708;9.030;2022-12-18T03:35:40;-10.50;99.90
6355;DHT22;3210;48.708;9.030;2022-12-18T03:38:08;-10.60;99.90
6355;DHT22;3210;48.708;9.030;2022-12-18T03:40:44;-10.60;99.90
6355;DHT22;3210;48.708;9.030;2022-12-18T03:43:20;-10.50;99.90
6355;DHT22;3210;48.708;9.030;2022-12-18T03:45:52;-10.50;99.90
6355;DHT22;3210;48.708;9.030;2022-12-18T03:48:27;-10.40;99.90
6355;DHT22;3210;48.708;9.030;2022-12-18T03:50:57;-10.40;99.90
6355;DHT22;3210;48.708;9.030;2022-12-18T03:53:33;-10.30;99.90
6355;DHT22;3210;48.708;9.030;2022-12-18T03:56:01;-10.40;99.90
6355;DHT22;3210;48.708;9.030;2022-12-18T03:58:32;-10.30;99.90
6355;DHT22;3210;48.708;9.030;2022-12-18T04:01:02;-10.40;99.90
6355;DHT22;3210;48.708;9.030;2022-12-18T04:03:31;-10.30;99.90
6355;DHT22;3210;48.708;9.030;2022-12-18T04:06:00;-10.30;99.90
6355;DHT22;3210;48.708;9.030;2022-12-18T04:08:27;-10.30;99.90
6355;DHT22;3210;48.708;9.030;2022-12-18T04:10:55;-10.50;99.90
6355;DHT22;3210;48.708;9.030;2022-12-18T04:13:22;-10.50;99.90
6355;DHT22;3210;48.708;9.030;2022-12-18T04:15:51;-10.50;99.90
6355;DHT22;3210;48.708;9.030;2022-12-18T04:18:18;-10.60;99.90
6355;DHT22;3210;48.708;9.030;2022-12-18T04:20:45;-10.50;99.90
6355;DHT22;3210;48.708;9.030;2022-12-18T04:23:12;-10.50;99.90
6355;DHT22;3210;48.708;9.030;2022-12-18T04:25:39;-10.70;99.90
6355;DHT22;3210;48.708;9.030;2022-12-18T04:28:06;-10.70;99.90
6355;DHT22;3210;48.708;9.030;2022-12-18T04:30:33;-10.70;99.90
6355;DHT22;3210;48.708;9.030;2022-12-18T04:33:01;-10.70;99.90
6355;DHT22;3210;48.708;9.030;2022-12-18T04:35:28;-10.70;99.90
6355;DHT22;3210;48.708;9.030;2022-12-18T04:37:55;-10.70;99.90
6355;DHT22;3210;48.708;9.030;2022-12-18T04:40:24;-10.70;99.90
6355;DHT22;3210;48.708;9.030;2022-12-18T04:42:51;-10.70;99.90
6355;DHT22;3210;48.708;9.030;2022-12-18T04:45:18;-10.70;99.90
6355;DHT22;3210;48.708;9.030;2022-12-18T04:47:45;-10.70;99.90
6355;DHT22;3210;48.708;9.030;2022-12-18T04:50:13;-10.60;99.90
6355;DHT22;3210;48.708;9.030;2022-12-18T04:52:40;-10.60;99.90
6355;DHT22;3210;48.708;9.030;2022-12-18T04:55:07;-10.50;99.90
6355;DHT22;3210;48.708;9.030;2022-12-18T04:57:34;-10.50;99.90
6355;DHT22;3210;48.708;9.030;2022-12-18T05:00:00;-10.60;99.90
6355;DHT22;3210;48.708;9.030;2022-12-18T05:02:27;-10.60;99.90
6355;DHT22;3210;48.708;9.030;2022-12-18T05:04:54;-10.30;99.90
6355;DHT22;3210;48.708;9.030;2022-12-18T05:07:22;-10.40;99.90
6355;DHT22;3210;48.708;9.030;2022-12-18T05:09:49;-10.50;99.90
6355;DHT22;3210;48.708;9.030;2022-12-18T05:12:16;-10.50;99.90
6355;DHT22;3210;48.708;9.030;2022-12-18T05:14:43;-10.40;99.90
6355;DHT22;3210;48.708;9.030;2022-12-18T05:17:10;-10.40;99.90
6355;DHT22;3210;48.708;9.030;2022-12-18T05:19:36;-10.50;99.90
6355;DHT22;3210;48.708;9.030;2022-12-18T05:22:08;-10.60;99.90
6355;DHT22;3210;48.708;9.030;2022-12-18T05:24:36;-10.60;99.90
6355;DHT22;3210;48.708;9.030;2022-12-18T05:27:03;-10.40;99.90
6355;DHT22;3210;48.708;9.030;2022-12-18T05:29:30;-10.50;99.90
6355;DHT22;3210;48.708;9.030;2022-12-18T05:31:57;-10.40;99.90
6355;DHT22;3210;48.708;9.030;2022-12-18T05:34:23;-10.50;99.90
6355;DHT22;3210;48.708;9.030;2022-12-18T05:36:50;-10.50;99.90
6355;DHT22;3210;48.708;9.030;2022-12-18T05:39:17;-10.40;99.90
6355;DHT22;3210;48.708;9.030;2022-12-18T05:41:45;-10.40;99.90
6355;DHT22;3210;48.708;9.030;2022-12-18T05:44:12;-10.20;99.90
6355;DHT22;3210;48.708;9.030;2022-12-18T05:46:39;-10.40;99.90
6355;DHT22;3210;48.708;9.030;2022-12-18T05:49:06;-10.50;99.90
6355;DHT22;3210;48.708;9.030;2022-12-18T05:51:33;-10.60;99.90
6355;DHT22;3210;48.708;9.030;2022-12-18T05:53:59;-10.60;99.90
6355;DHT22;3210;48.708;9.030;2022-12-18T05:56:26;-10.70;99.90
6355;DHT22;3210;48.708;9.030;2022-12-18T05:58:54;-10.80;99.90
6355;DHT22;3210;48.708;9.030;2022-12-18T06:01:23;-10.90;99.90
6355;DHT22;3210;48.708;9.030;2022-12-18T06:03:51;-11.10;99.60
6355;DHT22;3210;48.708;9.030;2022-12-18T06:06:20;-11.10;99.00
6355;DHT22;3210;48.708;9.030;2022-12-18T06:08:47;-11.20;97.90
6355;DHT22;3210;48.708;9.030;2022-12-18T06:11:18;-11.30;97.20
6355;DHT22;3210;48.708;9.030;2022-12-18T06:13:45;-11.30;96.90
6355;DHT22;3210;48.708;9.030;2022-12-18T06:16:14;-11.30;98.70
6355;DHT22;3210;48.708;9.030;2022-12-18T06:18:41;-11.40;99.10
6355;DHT22;3210;48.708;9.030;2022-12-18T06:21:08;-11.40;98.60
6355;DHT22;3210;48.708;9.030;2022-12-18T06:23:35;-11.30;99.90
6355;DHT22;3210;48.708;9.030;2022-12-18T06:26:04;-11.30;99.80
6355;DHT22;3210;48.708;9.030;2022-12-18T06:28:31;-11.20;99.20
6355;DHT22;3210;48.708;9.030;2022-12-18T06:30:58;-11.30;97.70
6355;DHT22;3210;48.708;9.030;2022-12-18T06:33:27;-11.40;96.60
6355;DHT22;3210;48.708;9.030;2022-12-18T06:35:58;-11.60;96.10
6355;DHT22;3210;48.708;9.030;2022-12-18T06:38:26;-11.60;97.60
6355;DHT22;3210;48.708;9.030;2022-12-18T06:40:52;-11.60;97.50
6355;DHT22;3210;48.708;9.030;2022-12-18T06:43:19;-11.60;97.30
6355;DHT22;3210;48.708;9.030;2022-12-18T06:45:46;-11.60;96.90
6355;DHT22;3210;48.708;9.030;2022-12-18T06:48:18;-11.60;95.90
6355;DHT22;3210;48.708;9.030;2022-12-18T06:50:46;-11.60;96.10
6355;DHT22;3210;48.708;9.030;2022-12-18T06:53:13;-11.60;97.10
6355;DHT22;3210;48.708;9.030;2022-12-18T06:55:40;-11.60;97.30
6355;DHT22;3210;48.708;9.030;2022-12-18T06:58:07;-11.70;99.20
6355;DHT22;3210;48.708;9.030;2022-12-18T07:00:34;-11.80;99.90
6355;DHT22;3210;48.708;9.030;2022-12-18T07:03:01;-11.70;99.90
6355;DHT22;3210;48.708;9.030;2022-12-18T07:05:28;-11.70;99.90
6355;DHT22;3210;48.708;9.030;2022-12-18T07:07:57;-11.80;99.90
6355;DHT22;3210;48.708;9.030;2022-12-18T07:10:23;-11.70;99.90
6355;DHT22;3210;48.708;9.030;2022-12-18T07:12:50;-11.70;99.90
6355;DHT22;3210;48.708;9.030;2022-12-18T07:15:17;-11.60;99.90
6355;DHT22;3210;48.708;9.030;2022-12-18T07:17:44;-11.60;99.90
6355;DHT22;3210;48.708;9.030;2022-12-18T07:20:11;-11.50;99.90
6355;DHT22;3210;48.708;9.030;2022-12-18T07:22:38;-11.50;99.90
6355;DHT22;3210;48.708;9.030;2022-12-18T07:25:07;-11.30;99.90
6355;DHT22;3210;48.708;9.030;2022-12-18T07:27:34;-11.40;99.90
6355;DHT22;3210;48.708;9.030;2022-12-18T07:30:01;-11.40;99.90
6355;DHT22;3210;48.708;9.030;2022-12-18T07:32:27;-11.40;99.90
6355;DHT22;3210;48.708;9.030;2022-12-18T07:34:54;-11.40;99.90
6355;DHT22;3210;48.708;9.030;2022-12-18T07:37:21;-11.30;99.90
6355;DHT22;3210;48.708;9.030;2022-12-18T07:39:48;-11.20;99.90
6355;DHT22;3210;48.708;9.030;2022-12-18T07:42:16;-11.10;99.90
6355;DHT22;3210;48.708;9.030;2022-12-18T07:44:59;-11.00;99.90
6355;DHT22;3210;48.708;9.030;2022-12-18T07:47:26;-10.90;99.90
6355;DHT22;3210;48.708;9.030;2022-12-18T07:49:56;-10.80;99.90
6355;DHT22;3210;48.708;9.030;2022-12-18T07:52:23;-10.80;99.90
6355;DHT22;3210;48.708;9.030;2022-12-18T07:54:50;-10.70;99.90
6355;DHT22;3210;48.708;9.030;2022-12-18T07:57:18;-10.60;99.90
6355;DHT22;3210;48.708;9.030;2022-12-18T07:59:45;-10.60;99.90
6355;DHT22;3210;48.708;9.030;2022-12-18T08:02:12;-10.60;99.90
6355;DHT22;3210;48.708;9.030;2022-12-18T08:04:39;-10.40;99.90
6355;DHT22;3210;48.708;9.030;2022-12-18T08:07:05;-10.30;99.90
6355;DHT22;3210;48.708;9.030;2022-12-18T08:09:32;-10.30;99.90
6355;DHT22;3210;48.708;9.030;2022-12-18T08:11:59;-10.20;99.90
6355;DHT22;3210;48.708;9.030;2022-12-18T08:14:27;-10.00;99.90
6355;DHT22;3210;48.708;9.030;2022-12-18T08:16:54;-10.00;99.90
6355;DHT22;3210;48.708;9.030;2022-12-18T08:19:21;-9.80;99.90
6355;DHT22;3210;48.708;9.030;2022-12-18T08:21:48;-9.60;99.90
6355;DHT22;3210;48.708;9.030;2022-12-18T08:24:14;-9.50;99.90
6355;DHT22;3210;48.708;9.030;2022-12-18T08:26:41;-9.40;99.90
6355;DHT22;3210;48.708;9.030;2022-12-18T08:29:09;-9.30;99.90
6355;DHT22;3210;48.708;9.030;2022-12-18T08:31:37;-9.20;99.90
6355;DHT22;3210;48.708;9.030;2022-12-18T08:34:04;-9.10;99.90
6355;DHT22;3210;48.708;9.030;2022-12-18T08:36:31;-8.90;99.90
6355;DHT22;3210;48.708;9.030;2022-12-18T08:38:58;-8.80;99.90
6355;DHT22;3210;48.708;9.030;2022-12-18T08:41:25;-8.70;99.90
6355;DHT22;3210;48.708;9.030;2022-12-18T08:43:52;-8.60;99.90
6355;DHT22;3210;48.708;9.030;2022-12-18T08:46:39;-8.40;99.90
6355;DHT22;3210;48.708;9.030;2022-12-18T08:49:07;-8.30;99.90
6355;DHT22;3210;48.708;9.030;2022-12-18T08:51:34;-8.00;99.90
6355;DHT22;3210;48.708;9.030;2022-12-18T08:54:02;-7.90;99.90
6355;DHT22;3210;48.708;9.030;2022-12-18T08:56:29;-7.60;99.90
6355;DHT22;3210;48.708;9.030;2022-12-18T08:58:57;-7.40;99.90
6355;DHT22;3210;48.708;9.030;2022-12-18T09:01:24;-7.20;99.90
6355;DHT22;3210;48.708;9.030;2022-12-18T09:03:52;-7.00;99.90
6355;DHT22;3210;48.708;9.030;2022-12-18T09:06:20;-6.90;99.90
6355;DHT22;3210;48.708;9.030;2022-12-18T09:08:48;-6.70;99.90
6355;DHT22;3210;48.708;9.030;2022-12-18T09:11:20;-6.50;99.90
6355;DHT22;3210;48.708;9.030;2022-12-18T09:13:47;-6.30;99.90
6355;DHT22;3210;48.708;9.030;2022-12-18T09:16:14;-6.10;99.90
6355;DHT22;3210;48.708;9.030;2022-12-18T09:18:41;-5.90;99.90
6355;DHT22;3210;48.708;9.030;2022-12-18T09:21:11;-5.90;99.90
6355;DHT22;3210;48.708;9.030;2022-12-18T09:23:38;-5.80;99.90
6355;DHT22;3210;48.708;9.030;2022-12-18T09:26:05;-5.70;99.90
6355;DHT22;3210;48.708;9.030;2022-12-18T09:28:31;-5.60;99.90
6355;DHT22;3210;48.708;9.030;2022-12-18T09:30:59;-5.50;99.90
6355;DHT22;3210;48.708;9.030;2022-12-18T09:33:29;-5.30;99.90
6355;DHT22;3210;48.708;9.030;2022-12-18T09:35:56;-5.20;99.90
6355;DHT22;3210;48.708;9.030;2022-12-18T09:38:24;-5.10;99.90
6355;DHT22;3210;48.708;9.030;2022-12-18T09:40:52;-5.00;99.90
6355;DHT22;3210;48.708;9.030;2022-12-18T09:43:23;-4.80;99.90
6355;DHT22;3210;48.708;9.030;2022-12-18T09:45:53;-4.70;99.90
6355;DHT22;3210;48.708;9.030;2022-12-18T09:48:25;-4.50;99.90
6355;DHT22;3210;48.708;9.030;2022-12-18T09:50:57;-4.40;99.90
6355;DHT22;3210;48.708;9.030;2022-12-18T09:53:30;-4.30;99.90
6355;DHT22;3210;48.708;9.030;2022-12-18T09:55:57;-4.30;99.90
6355;DHT22;3210;48.708;9.030;2022-12-18T09:58:29;-4.20;99.90
6355;DHT22;3210;48.708;9.030;2022-12-18T10:00:57;-4.00;99.90
6355;DHT22;3210;48.708;9.030;2022-12-18T10:03:25;-3.90;99.90
6355;DHT22;3210;48.708;9.030;2022-12-18T10:05:59;-3.70;99.90
6355;DHT22;3210;48.708;9.030;2022-12-18T10:08:36;-3.80;99.90
6355;DHT22;3210;48.708;9.030;2022-12-18T10:11:21;-3.60;99.90
6355;DHT22;3210;48.708;9.030;2022-12-18T10:13:57;-3.70;99.90
6355;DHT22;3210;48.708;9.030;2022-12-18T10:16:35;-3.50;99.90
6355;DHT22;3210;48.708;9.030;2022-12-18T10:19:16;-3.40;99.90
6355;DHT22;3210;48.708;9.030;2022-12-18T10:21:51;-3.30;99.90
6355;DHT22;3210;48.708;9.030;2022-12-18T10:24:31;-3.20;99.90
6355;DHT22;3210;48.708;9.030;2022-12-18T10:27:09;-3.10;99.90
6355;DHT22;3210;48.708;9.030;2022-12-18T10:29:38;-3.10;99.90
6355;DHT22;3210;48.708;9.030;2022-12-18T10:32:06;-2.90;99.90
6355;DHT22;3210;48.708;9.030;2022-12-18T10:34:33;-3.00;99.90
6355;DHT22;3210;48.708;9.030;2022-12-18T10:37:01;-2.90;99.90
6355;DHT22;3210;48.708;9.030;2022-12-18T10:39:29;-2.80;99.90
6355;DHT22;3210;48.708;9.030;2022-12-18T10:42:09;-2.90;99.90
6355;DHT22;3210;48.708;9.030;2022-12-18T10:44:37;-2.70;99.90
6355;DHT22;3210;48.708;9.030;2022-12-18T10:47:06;-2.60;99.90
6355;DHT22;3210;48.708;9.030;2022-12-18T10:49:41;-2.50;99.90
6355;DHT22;3210;48.708;9.030;2022-12-18T10:52:14;-2.50;99.90
6355;DHT22;3210;48.708;9.030;2022-12-18T10:54:49;-2.50;99.90
6355;DHT22;3210;48.708;9.030;2022-12-18T10:57:28;-2.50;99.90
6355;DHT22;3210;48.708;9.030;2022-12-18T10:59:57;-2.30;99.90
6355;DHT22;3210;48.708;9.030;2022-12-18T11:02:27;-2.30;99.90
6355;DHT22;3210;48.708;9.030;2022-12-18T11:04:54;-2.40;99.90
6355;DHT22;3210;48.708;9.030;2022-12-18T11:07:21;-2.50;99.90
6355;DHT22;3210;48.708;9.030;2022-12-18T11:10:00;-2.50;99.90
6355;DHT22;3210;48.708;9.030;2022-12-18T11:12:28;-2.50;99.90
6355;DHT22;3210;48.708;9.030;2022-12-18T11:14:57;-2.40;99.90
6355;DHT22;3210;48.708;9.030;2022-12-18T11:17:28;-2.40;99.90
6355;DHT22;3210;48.708;9.030;2022-12-18T11:19:57;-2.30;99.90
6355;DHT22;3210;48.708;9.030;2022-12-18T11:22:26;-2.10;99.90
6355;DHT22;3210;48.708;9.030;2022-12-18T11:24:57;-2.10;99.90
6355;DHT22;3210;48.708;9.030;2022-12-18T11:27:25;-2.20;99.90
6355;DHT22;3210;48.708;9.030;2022-12-18T11:29:52;-2.10;99.90
6355;DHT22;3210;48.708;9.030;2022-12-18T11:32:31;-2.10;99.90
6355;DHT22;3210;48.708;9.030;2022-12-18T11:35:04;-2.10;99.90
6355;DHT22;3210;48.708;9.030;2022-12-18T11:37:34;-2.20;99.90
6355;DHT22;3210;48.708;9.030;2022-12-18T11:40:11;-2.50;99.90
6355;DHT22;3210;48.708;9.030;2022-12-18T11:42:45;-2.40;99.90
6355;DHT22;3210;48.708;9.030;2022-12-18T11:45:28;-2.30;99.90
6355;DHT22;3210;48.708;9.030;2022-12-18T11:48:00;-2.30;99.90
6355;DHT22;3210;48.708;9.030;2022-12-18T11:50:33;-2.20;99.90
6355;DHT22;3210;48.708;9.030;2022-12-18T11:53:01;-2.30;99.90
6355;DHT22;3210;48.708;9.030;2022-12-18T11:55:36;-2.40;99.90
6355;DHT22;3210;48.708;9.030;2022-12-18T11:58:11;-2.00;99.90
6355;DHT22;3210;48.708;9.030;2022-12-18T12:00:55;-2.00;99.90
6355;DHT22;3210;48.708;9.030;2022-12-18T12:06:21;-2.00;99.90
6355;DHT22;3210;48.708;9.030;2022-12-18T12:09:01;-2.00;99.90
6355;DHT22;3210;48.708;9.030;2022-12-18T12:11:39;-2.10;99.90
6355;DHT22;3210;48.708;9.030;2022-12-18T12:14:22;-2.20;99.90
6355;DHT22;3210;48.708;9.030;2022-12-18T12:16:54;-2.20;99.90
6355;DHT22;3210;48.708;9.030;2022-12-18T12:19:34;-2.40;99.90
6355;DHT22;3210;48.708;9.030;2022-12-18T12:22:07;-2.40;99.90
6355;DHT22;3210;48.708;9.030;2022-12-18T12:24:45;-2.40;99.90
6355;DHT22;3210;48.708;9.030;2022-12-18T12:27:20;-2.40;99.90
6355;DHT22;3210;48.708;9.030;2022-12-18T12:30:00;-2.30;99.90
6355;DHT22;3210;48.708;9.030;2022-12-18T12:32:46;-2.20;99.90
6355;DHT22;3210;48.708;9.030;2022-12-18T12:35:25;-2.10;99.90
6355;DHT22;3210;48.708;9.030;2022-12-18T12:38:04;-2.10;99.90
6355;DHT22;3210;48.708;9.030;2022-12-18T12:40:34;-2.00;99.90
6355;DHT22;3210;48.708;9.030;2022-12-18T12:43:10;-2.10;99.90
6355;DHT22;3210;48.708;9.030;2022-12-18T12:45:46;-1.90;99.90
6355;DHT22;3210;48.708;9.030;2022-12-18T12:48:26;-1.90;99.90
6355;DHT22;3210;48.708;9.030;2022-12-18T12:50:55;-2.00;99.90
6355;DHT22;3210;48.708;9.030;2022-12-18T12:53:27;-2.00;99.90
6355;DHT22;3210;48.708;9.030;2022-12-18T12:55:56;-2.00;99.90
6355;DHT22;3210;48.708;9.030;2022-12-18T12:58:31;-2.10;99.90
6355;DHT22;3210;48.708;9.030;2022-12-18T13:01:08;-2.10;99.90
6355;DHT22;3210;48.708;9.030;2022-12-18T13:03:45;-2.00;99.90
6355;DHT22;3210;48.708;9.030;2022-12-18T13:06:23;-1.90;99.90
6355;DHT22;3210;48.708;9.030;2022-12-18T13:08:54;-2.00;99.90
6355;DHT22;3210;48.708;9.030;2022-12-18T13:11:34;-1.90;99.90
6355;DHT22;3210;48.708;9.030;2022-12-18T13:14:24;-2.00;99.90
6355;DHT22;3210;48.708;9.030;2022-12-18T13:17:16;-1.90;99.90
6355;DHT22;3210;48.708;9.030;2022-12-18T13:19:43;-2.00;99.90
6355;DHT22;3210;48.708;9.030;2022-12-18T13:22:22;-2.00;99.90
6355;DHT22;3210;48.708;9.030;2022-12-18T13:24:49;-1.90;99.90
6355;DHT22;3210;48.708;9.030;2022-12-18T13:27:53;-1.90;99.90
6355;DHT22;3210;48.708;9.030;2022-12-18T13:30:51;-2.00;99.90
6355;DHT22;3210;48.708;9.030;2022-12-18T13:33:37;-2.00;99.90
6355;DHT22;3210;48.708;9.030;2022-12-18T13:36:13;-2.00;99.90
6355;DHT22;3210;48.708;9.030;2022-12-18T13:38:41;-2.00;99.90
6355;DHT22;3210;48.708;9.030;2022-12-18T13:41:26;-2.20;99.90
6355;DHT22;3210;48.708;9.030;2022-12-18T13:43:54;-2.20;99.90
6355;DHT22;3210;48.708;9.030;2022-12-18T13:46:27;-2.10;99.90
6355;DHT22;3210;48.708;9.030;2022-12-18T13:48:57;-2.00;99.90
6355;DHT22;3210;48.708;9.030;2022-12-18T13:51:26;-2.20;99.90
6355;DHT22;3210;48.708;9.030;2022-12-18T13:53:55;-2.10;99.90
6355;DHT22;3210;48.708;9.030;2022-12-18T13:56:25;-2.10;99.90
6355;DHT22;3210;48.708;9.030;2022-12-18T13:59:12;-2.10;99.90
6355;DHT22;3210;48.708;9.030;2022-12-18T14:01:45;-2.10;99.90
6355;DHT22;3210;48.708;9.030;2022-12-18T14:04:22;-2.30;99.90
6355;DHT22;3210;48.708;9.030;2022-12-18T14:06:51;-2.30;99.90
6355;DHT22;3210;48.708;9.030;2022-12-18T14:09:24;-2.30;99.90
6355;DHT22;3210;48.708;9.030;2022-12-18T14:11:52;-2.30;99.90
6355;DHT22;3210;48.708;9.030;2022-12-18T14:14:41;-2.40;99.90
6355;DHT22;3210;48.708;9.030;2022-12-18T14:17:11;-2.50;99.90
6355;DHT22;3210;48.708;9.030;2022-12-18T14:19:42;-2.50;99.90
6355;DHT22;3210;48.708;9.030;2022-12-18T14:22:15;-2.50;99.90
6355;DHT22;3210;48.708;9.030;2022-12-18T14:24:42;-2.60;99.90
6355;DHT22;3210;48.708;9.030;2022-12-18T14:27:20;-2.70;99.90
6355;DHT22;3210;48.708;9.030;2022-12-18T14:29:47;-2.60;99.90
6355;DHT22;3210;48.708;9.030;2022-12-18T14:32:17;-2.60;99.90
6355;DHT22;3210;48.708;9.030;2022-12-18T14:34:45;-2.70;99.90
6355;DHT22;3210;48.708;9.030;2022-12-18T14:37:13;-2.70;99.90
6355;DHT22;3210;48.708;9.030;2022-12-18T14:39:52;-2.80;99.90
6355;DHT22;3210;48.708;9.030;2022-12-18T14:42:19;-2.90;99.90
6355;DHT22;3210;48.708;9.030;2022-12-18T14:44:46;-2.90;99.90
6355;DHT22;3210;48.708;9.030;2022-12-18T14:47:15;-3.00;99.90
6355;DHT22;3210;48.708;9.030;2022-12-18T14:49:43;-3.00;99.90
6355;DHT22;3210;48.708;9.030;2022-12-18T14:52:20;-3.10;99.90
6355;DHT22;3210;48.708;9.030;2022-12-18T14:54:49;-3.10;99.90
6355;DHT22;3210;48.708;9.030;2022-12-18T14:57:21;-3.00;99.90
6355;DHT22;3210;48.708;9.030;2022-12-18T14:59:49;-3.00;99.90
6355;DHT22;3210;48.708;9.030;2022-12-18T15:02:20;-3.10;99.90
6355;DHT22;3210;48.708;9.030;2022-12-18T15:04:59;-3.10;99.90
6355;DHT22;3210;48.708;9.030;2022-12-18T15:07:27;-3.20;99.90
6355;DHT22;3210;48.708;9.030;2022-12-18T15:10:09;-3.40;99.90
6355;DHT22;3210;48.708;9.030;2022-12-18T15:12:39;-3.50;99.90
6355;DHT22;3210;48.708;9.030;2022-12-18T15:18:13;-3.60;99.90
6355;DHT22;3210;48.708;9.030;2022-12-18T15:20:44;-3.70;99.90
6355;DHT22;3210;48.708;9.030;2022-12-18T15:23:20;-3.70;99.90
6355;DHT22;3210;48.708;9.030;2022-12-18T15:25:49;-3.70;99.90
6355;DHT22;3210;48.708;9.030;2022-12-18T15:28:23;-3.70;99.90
6355;DHT22;3210;48.708;9.030;2022-12-18T15:31:04;-3.80;99.90
6355;DHT22;3210;48.708;9.030;2022-12-18T15:33:35;-3.80;99.90
6355;DHT22;3210;48.708;9.030;2022-12-18T15:36:03;-3.80;99.90
6355;DHT22;3210;48.708;9.030;2022-12-18T15:38:31;-3.80;99.90
6355;DHT22;3210;48.708;9.030;2022-12-18T15:40:58;-3.80;99.90
6355;DHT22;3210;48.708;9.030;2022-12-18T15:43:26;-3.90;99.90
6355;DHT22;3210;48.708;9.030;2022-12-18T15:46:02;-3.90;99.90
6355;DHT22;3210;48.708;9.030;2022-12-18T15:48:30;-4.00;99.90
6355;DHT22;3210;48.708;9.030;2022-12-18T15:51:00;-4.10;99.90
6355;DHT22;3210;48.708;9.030;2022-12-18T15:53:31;-4.10;99.90
6355;DHT22;3210;48.708;9.030;2022-12-18T15:55:59;-4.20;99.90
6355;DHT22;3210;48.708;9.030;2022-12-18T15:58:43;-4.10;99.90
6355;DHT22;3210;48.708;9.030;2022-12-18T16:01:10;-4.20;99.90
6355;DHT22;3210;48.708;9.030;2022-12-18T16:03:38;-4.30;99.90
6355;DHT22;3210;48.708;9.030;2022-12-18T16:06:09;-4.30;99.90
6355;DHT22;3210;48.708;9.030;2022-12-18T16:08:36;-4.30;99.90
6355;DHT22;3210;48.708;9.030;2022-12-18T16:11:05;-4.40;99.90
6355;DHT22;3210;48.708;9.030;2022-12-18T16:13:37;-4.30;99.90
6355;DHT22;3210;48.708;9.030;2022-12-18T16:16:04;-4.30;99.90
6355;DHT22;3210;48.708;9.030;2022-12-18T16:18:31;-4.40;99.90
6355;DHT22;3210;48.708;9.030;2022-12-18T16:20:58;-4.40;99.90
6355;DHT22;3210;48.708;9.030;2022-12-18T16:23:26;-4.40;99.90